Time;durP1;ratioP1;P1;durP2;ratioP2;P2;SDS_P1;SDS_P2;PMS_P1;PMS_P2;Temp;Humidity;BMP_temperature;BMP_pressure;BME280_temperature;BME280_humidity;BME280_pressure;Samples;Min_cycle;Max_cycle;Signal;HPM_P1;HPM_P2
2022/11/12 00:02:58;;;;;;;29.02;12.55;;;;;;;7.57;100.00;100261.97;4381820;32;20042;-72
2022/11/12 00:05:44;;;;;;;31.75;14.50;;;;;;;7.53;100.00;100244.66;4380588;32;20035;-73
2022/11/12 00:08:29;;;;;;;42.88;15.23;;;;;;;7.91;100.00;100284.34;4374968;32;20361;-74
2022/11/12 00:11:14;;;;;;;34.85;14.00;;;;;;;7.30;100.00;100206.63;4365051;32;20327;-73
2022/11/12 00:13:59;;;;;;;36.63;12.02;;;;;;;7.67;100.00;100266.94;4367867;32;20061;-73
2022/11/12 00:16:44;;;;;;;35.28;14.00;;;;;;;7.48;100.00;100270.38;4365681;32;20028;-73
2022/11/12 00:19:29;;;;;;;44.28;13.48;;;;;;;7.30;100.00;100228.06;4368228;32;20066;-73
2022/11/12 00:22:14;;;;;;;36.00;15.02;;;;;;;7.39;100.00;100242.94;4366877;32;20027;-73
2022/11/12 00:24:58;;;;;;;33.28;13.07;;;;;;;7.35;100.00;100230.94;4368333;32;20116;-73
2022/11/12 00:27:43;;;;;;;36.60;13.18;;;;;;;7.13;100.00;100241.75;4336854;33;20089;-74
2022/11/12 00:30:28;;;;;;;34.08;13.70;;;;;;;7.39;100.00;100264.37;4351404;32;20062;-74
2022/11/12 00:33:13;;;;;;;29.42;13.15;;;;;;;7.29;100.00;100221.84;4371586;32;20071;-74
2022/11/12 00:35:59;;;;;;;33.17;12.65;;;;;;;7.27;100.00;100245.34;4382800;32;20104;-74
2022/11/12 00:38:44;;;;;;;31.95;13.25;;;;;;;7.17;100.00;100228.81;4380634;32;20081;-74
2022/11/12 00:41:29;;;;;;;31.52;12.85;;;;;;;7.18;100.00;100241.16;4364655;32;20223;-74
2022/11/12 00:44:14;;;;;;;44.60;14.85;;;;;;;7.19;100.00;100251.69;4367058;32;20474;-74
2022/11/12 00:46:59;;;;;;;29.65;12.60;;;;;;;7.35;100.00;100279.19;4368358;32;20040;-74
2022/11/12 00:49:43;;;;;;;42.62;14.82;;;;;;;7.02;100.00;100242.31;4366765;32;20092;-74
2022/11/12 00:52:28;;;;;;;31.08;13.80;;;;;;;6.94;100.00;100242.47;4368144;32;20062;-74
2022/11/12 00:55:13;;;;;;;32.58;12.73;;;;;;;7.06;100.00;100275.72;4350422;33;20120;-74
2022/11/12 00:57:58;;;;;;;27.95;12.10;;;;;;;6.94;100.00;100272.75;4352604;33;20194;-75
2022/11/12 01:00:43;;;;;;;30.45;12.18;;;;;;;6.78;100.00;100276.56;4351229;33;20456;-75
2022/11/12 01:03:28;;;;;;;26.90;12.65;;;;;;;6.53;100.00;100236.81;4352540;33;20069;-72
2022/11/12 01:06:19;;;;;;;32.45;13.45;;;;;;;6.78;100.00;100273.88;4355271;32;20855;-73
2022/11/12 01:09:04;;;;;;;33.60;12.90;;;;;;;6.81;100.00;100272.66;4352147;33;20047;-73
2022/11/12 01:11:49;;;;;;;23.90;12.85;;;;;;;6.81;100.00;100273.50;4355756;32;20299;-73
2022/11/12 01:14:35;;;;;;;27.35;14.05;;;;;;;6.77;100.00;100276.75;4365734;32;20073;-74
2022/11/12 01:17:20;;;;;;;42.15;14.95;;;;;;;6.87;100.00;100272.69;4367201;32;20078;-73
2022/11/12 01:20:05;;;;;;;30.60;12.85;;;;;;;6.77;100.00;100279.44;4367495;32;20486;-73
2022/11/12 01:22:50;;;;;;;40.47;12.02;;;;;;;6.33;100.00;100238.50;4356095;32;20426;-74
2022/11/12 01:25:37;;;;;;;30.75;12.35;;;;;;;5.71;100.00;100159.72;4367811;32;20043;-74
2022/11/12 01:28:22;;;;;;;31.35;12.18;;;;;;;6.63;100.00;100278.50;4386044;32;20031;-73
2022/11/12 01:31:16;;;;;;;31.12;13.27;;;;;;;6.24;100.00;100231.62;4388494;32;20063;-74
2022/11/12 01:34:05;;;;;;;26.80;12.20;;;;;;;6.77;100.00;100277.56;4398580;32;20031;-74
2022/11/12 01:36:50;;;;;;;30.27;12.73;;;;;;;6.43;100.00;100222.97;4399810;32;20056;-74
2022/11/12 01:39:35;;;;;;;26.67;12.13;;;;;;;6.46;100.00;100257.37;4397699;32;20078;-74
2022/11/12 01:42:19;;;;;;;23.67;11.02;;;;;;;6.42;100.00;100239.22;4400866;32;20471;-74
2022/11/12 01:45:15;;;;;;;30.50;11.57;;;;;;;6.38;100.00;100252.12;4398545;32;20056;-73
2022/11/12 01:48:01;;;;;;;28.48;10.80;;;;;;;6.41;100.00;100234.88;4399752;32;20035;-74
2022/11/12 01:50:46;;;;;;;30.12;11.88;;;;;;;6.31;100.00;100261.94;4387830;32;20078;-74
2022/11/12 01:53:38;;;;;;;38.35;12.68;;;;;;;6.59;100.00;100271.84;4399247;32;20060;-74
2022/11/12 01:56:26;;;;;;;25.42;11.45;;;;;;;6.69;100.00;100269.69;4383412;32;20074;-73
2022/11/12 01:59:16;;;;;;;24.52;11.25;;;;;;;6.58;100.00;100232.75;4383655;32;20069;-74
2022/11/12 02:02:00;;;;;;;29.95;11.57;;;;;;;6.50;100.00;100228.38;4369402;32;20055;-75
2022/11/12 02:04:46;;;;;;;30.67;12.90;;;;;;;6.22;100.00;100241.69;4368334;32;20334;-75
2022/11/12 02:07:35;;;;;;;28.33;12.13;;;;;;;6.42;100.00;100268.63;4369665;32;20372;-74
2022/11/12 02:10:21;;;;;;;31.10;11.25;;;;;;;6.48;100.00;100276.72;4368919;32;20035;-75
2022/11/12 02:16:11;;;;;;;28.27;11.82;;;;;;;6.42;100.00;100280.16;4338585;33;20040;-74
2022/11/12 02:18:56;;;;;;;28.95;12.45;;;;;;;5.82;100.00;100210.84;4338673;33;20025;-74
2022/11/12 02:21:41;;;;;;;29.50;12.02;;;;;;;6.08;100.00;100244.25;4340341;33;20048;-74
2022/11/12 02:24:26;;;;;;;37.47;12.30;;;;;;;6.08;100.00;100238.91;4351572;32;20427;-74
2022/11/12 02:27:11;;;;;;;31.48;12.00;;;;;;;6.03;100.00;100243.16;4367960;32;20081;-75
2022/11/12 02:29:56;;;;;;;31.77;11.57;;;;;;;6.38;100.00;100284.22;4380330;32;20542;-74
2022/11/12 02:32:41;;;;;;;29.45;11.48;;;;;;;5.94;100.00;100240.56;4372869;32;20077;-74
2022/11/12 02:35:26;;;;;;;28.23;11.15;;;;;;;6.16;100.00;100268.19;4362244;32;20063;-75
2022/11/12 02:38:11;;;;;;;25.62;11.80;;;;;;;6.06;100.00;100275.66;4360848;32;20048;-74
2022/11/12 02:40:56;;;;;;;27.98;11.63;;;;;;;6.06;100.00;100281.03;4354724;32;20032;-74
2022/11/12 02:43:42;;;;;;;29.55;12.02;;;;;;;5.93;100.00;100291.56;4379808;32;20054;-74
2022/11/12 02:46:26;;;;;;;18.42;9.55;;;;;;;6.15;100.00;100295.94;4399916;32;20065;-74
2022/11/12 02:49:11;;;;;;;31.27;11.40;;;;;;;5.83;100.00;100290.00;4413816;32;20127;-74
2022/11/12 02:51:56;;;;;;;33.85;11.75;;;;;;;5.92;100.00;100295.22;4412078;32;20052;-73
2022/11/12 02:54:41;;;;;;;28.38;11.20;;;;;;;5.88;100.00;100299.31;4414710;32;20073;-73
2022/11/12 02:57:28;;;;;;;28.00;10.88;;;;;;;5.66;100.00;100275.19;4413279;32;20314;-74
2022/11/12 03:00:13;;;;;;;24.02;12.07;;;;;;;5.98;100.00;100300.72;4414062;32;20095;-73
2022/11/12 03:02:57;;;;;;;23.40;11.50;;;;;;;6.06;100.00;100299.75;4414692;32;20050;-73
2022/11/12 03:05:44;;;;;;;25.20;11.75;;;;;;;6.01;100.00;100307.50;4387615;32;20086;-74
2022/11/12 03:08:29;;;;;;;30.25;12.48;;;;;;;6.21;100.00;100304.22;4397388;32;20031;-74
2022/11/12 03:11:16;;;;;;;24.75;10.30;;;;;;;6.10;100.00;100303.69;4398566;32;20059;-73
2022/11/12 03:14:01;;;;;;;32.22;10.90;;;;;;;5.99;100.00;100269.44;4398038;32;20052;-73
2022/11/12 03:16:46;;;;;;;25.67;11.10;;;;;;;5.97;100.00;100315.09;4398352;32;20063;-74
2022/11/12 03:19:31;;;;;;;19.27;8.93;;;;;;;6.01;100.00;100310.19;4398135;32;20023;-74
2022/11/12 03:22:16;;;;;;;26.23;10.70;;;;;;;6.03;100.00;100307.31;4398911;32;20043;-73
2022/11/12 03:25:01;;;;;;;22.87;10.05;;;;;;;5.97;100.00;100276.84;4399282;32;20023;-74
2022/11/12 03:27:45;;;;;;;23.90;10.80;;;;;;;5.83;100.00;100276.62;4398293;32;20049;-74
2022/11/12 03:30:34;;;;;;;29.63;10.50;;;;;;;6.16;100.00;100307.47;4368385;32;20049;-74
2022/11/12 03:33:19;;;;;;;24.25;8.55;;;;;;;6.36;100.00;100308.50;4368844;32;21026;-74
2022/11/12 03:36:04;;;;;;;23.62;9.68;;;;;;;5.87;100.00;100303.00;4372877;32;20028;-75
2022/11/12 03:38:49;;;;;;;25.55;10.90;;;;;;;6.17;100.00;100309.97;4368691;32;20043;-74
2022/11/12 03:41:33;;;;;;;23.67;10.23;;;;;;;6.17;100.00;100309.97;4382596;32;20063;-74
2022/11/12 03:44:18;;;;;;;23.80;11.10;;;;;;;6.41;100.00;100310.59;4383069;32;20080;-74
2022/11/12 03:47:03;;;;;;;28.52;11.95;;;;;;;6.42;100.00;100301.56;4354111;32;20097;-74
2022/11/12 03:49:48;;;;;;;25.65;10.23;;;;;;;6.34;100.00;100278.44;4352057;32;20044;-74
2022/11/12 03:52:32;;;;;;;26.85;11.38;;;;;;;6.20;100.00;100265.13;4352635;32;20024;-73
2022/11/12 03:55:20;;;;;;;29.25;12.07;;;;;;;6.33;100.00;100292.00;4353459;32;20083;-74
2022/11/12 03:58:05;;;;;;;24.05;10.65;;;;;;;6.51;100.00;100270.97;4353880;32;20032;-74
2022/11/12 04:00:50;;;;;;;26.27;10.80;;;;;;;6.37;100.00;100262.00;4361379;32;20069;-73
2022/11/12 04:03:35;;;;;;;23.98;10.93;;;;;;;6.36;100.00;100254.16;4383517;32;20041;-72
2022/11/12 04:09:23;;;;;;;32.45;10.40;;;;;;;6.25;100.00;100289.44;4383409;32;20073;-74
2022/11/12 04:15:12;;;;;;;29.55;10.57;;;;;;;6.55;100.00;100287.47;4366291;32;20024;-74
2022/11/12 04:24:04;;;;;;;28.87;10.60;;;;;;;6.19;100.00;100285.72;4383571;32;20055;-73
2022/11/12 04:26:49;;;;;;;23.50;9.75;;;;;;;6.47;100.00;100287.59;4380296;32;20047;-74
2022/11/12 04:32:55;;;;;;;22.52;10.27;;;;;;;6.49;100.00;100285.56;4372994;32;20068;-73
2022/11/12 04:35:41;;;;;;;21.15;9.85;;;;;;;6.66;100.00;100244.13;4358843;32;20067;-73
2022/11/12 04:38:26;;;;;;;20.23;9.52;;;;;;;6.40;100.00;100282.19;4344961;32;20397;-74
2022/11/12 04:47:22;;;;;;;22.73;9.10;;;;;;;6.33;100.00;100270.59;4343989;32;20093;-74
2022/11/12 04:50:13;;;;;;;17.65;9.23;;;;;;;6.04;100.00;100250.97;4375238;32;20065;-74
2022/11/12 04:52:58;;;;;;;26.23;9.93;;;;;;;6.02;100.00;100207.56;4348846;33;20468;-74
2022/11/12 04:55:43;;;;;;;21.73;9.57;;;;;;;6.41;100.00;100283.84;4349616;33;20137;-75
2022/11/12 04:58:28;;;;;;;20.65;9.88;;;;;;;6.18;100.00;100246.59;4347885;33;20156;-72
2022/11/12 05:01:12;;;;;;;18.12;8.63;;;;;;;6.25;100.00;100241.31;4347995;32;20048;-73
2022/11/12 05:03:58;;;;;;;21.48;9.55;;;;;;;6.02;100.00;100253.03;4350856;32;20052;-74
2022/11/12 05:06:50;;;;;;;25.08;11.15;;;;;;;6.11;100.00;100278.63;4360877;32;20043;-73
2022/11/12 05:09:35;;;;;;;26.12;11.38;;;;;;;6.78;100.00;100281.91;4385016;32;20513;-73
2022/11/12 05:12:20;;;;;;;27.92;11.35;;;;;;;6.48;100.00;100290.09;4399145;32;20031;-73
2022/11/12 05:15:06;;;;;;;36.25;13.60;;;;;;;7.18;100.00;100260.75;4398683;32;20439;-75
2022/11/12 05:17:51;;;;;;;37.03;13.15;;;;;;;7.69;100.00;100253.34;4395949;32;20030;-74
2022/11/12 05:20:37;;;;;;;25.45;12.10;;;;;;;7.51;100.00;100262.75;4394418;32;20089;-75
2022/11/12 05:23:22;;;;;;;29.48;11.90;;;;;;;7.14;100.00;100288.13;4402484;32;20068;-74
2022/11/12 05:26:07;;;;;;;22.37;10.93;;;;;;;6.60;100.00;100298.41;4410478;32;20049;-76
2022/11/12 05:28:51;;;;;;;34.38;13.13;;;;;;;6.47;100.00;100296.47;4390086;32;20049;-75
2022/11/12 05:31:37;;;;;;;42.67;11.60;;;;;;;6.52;100.00;100263.78;4389572;32;20072;-75
2022/11/12 05:34:22;;;;;;;33.45;12.00;;;;;;;6.76;100.00;100286.62;4391957;32;20027;-76
2022/11/12 05:37:09;;;;;;;26.83;11.50;;;;;;;6.85;100.00;100298.84;4392801;32;20093;-75
2022/11/12 05:39:54;;;;;;;27.20;11.23;;;;;;;6.94;100.00;100298.69;4388276;32;20231;-73
2022/11/12 05:42:39;;;;;;;26.90;10.77;;;;;;;6.66;100.00;100307.53;4386820;32;20117;-73
2022/11/12 05:45:24;;;;;;;32.97;10.93;;;;;;;6.36;100.00;100318.37;4383806;32;20040;-73
2022/11/12 05:48:09;;;;;;;26.25;10.60;;;;;;;6.60;100.00;100308.31;4364082;32;20091;-74
2022/11/12 05:50:54;;;;;;;30.75;12.73;;;;;;;6.53;100.00;100319.78;4355398;32;20036;-74
2022/11/12 05:53:45;;;;;;;34.95;12.80;;;;;;;6.57;100.00;100324.75;4355302;32;20079;-74
2022/11/12 05:56:30;;;;;;;36.08;12.73;;;;;;;6.20;100.00;100270.47;4353979;32;20403;-74
2022/11/12 05:59:15;;;;;;;50.55;13.90;;;;;;;6.67;100.00;100322.56;4364766;32;20073;-75
2022/11/12 06:02:00;;;;;;;32.00;13.40;;;;;;;6.42;100.00;100290.84;4369748;32;20345;-74
2022/11/12 06:04:45;;;;;;;30.08;13.40;;;;;;;6.47;100.00;100292.97;4365880;32;20125;-74
2022/11/12 06:07:29;;;;;;;25.60;11.10;;;;;;;6.63;100.00;100318.63;4369536;32;20051;-73
2022/11/12 06:10:21;;;;;;;36.75;14.48;;;;;;;6.38;100.00;100316.31;4369873;32;20078;-74
2022/11/12 06:13:06;;;;;;;40.40;12.73;;;;;;;6.53;100.00;100333.16;4357100;32;20036;-75
2022/11/12 06:15:52;;;;;;;33.65;12.05;;;;;;;6.59;100.00;100326.22;4355003;32;20076;-75
2022/11/12 06:18:37;;;;;;;31.50;12.52;;;;;;;6.69;100.00;100289.25;4366205;32;20063;-75
2022/11/12 06:21:22;;;;;;;36.22;13.48;;;;;;;6.80;100.00;100338.75;4384971;32;20054;-75
2022/11/12 06:24:08;;;;;;;27.05;13.48;;;;;;;6.81;100.00;100327.03;4385126;32;20380;-73
2022/11/12 06:26:53;;;;;;;31.00;13.32;;;;;;;6.98;100.00;100324.06;4384607;32;20051;-73
2022/11/12 06:29:38;;;;;;;35.92;11.90;;;;;;;6.93;100.00;100305.09;4348288;32;20066;-73
2022/11/12 06:32:24;;;;;;;56.97;13.45;;;;;;;6.60;100.00;100302.97;4338199;33;20113;-73
2022/11/12 06:35:09;;;;;;;38.47;13.15;;;;;;;6.62;100.00;100269.62;4312499;33;20455;-74
2022/11/12 06:37:54;;;;;;;29.48;12.60;;;;;;;6.85;100.00;100316.75;4325024;33;20073;-74
2022/11/12 06:40:38;;;;;;;39.38;13.10;;;;;;;6.73;100.00;100336.03;4324454;33;20028;-74
2022/11/12 06:43:24;;;;;;;34.30;12.37;;;;;;;6.93;100.00;100348.75;4296210;33;20106;-74
2022/11/12 06:46:14;;;;;;;25.65;11.20;;;;;;;6.91;100.00;100316.81;4292845;33;20453;-73
2022/11/12 06:48:59;;;;;;;34.13;12.10;;;;;;;7.19;100.00;100345.44;4295965;33;20056;-73
2022/11/12 06:51:44;;;;;;;37.25;12.30;;;;;;;6.75;100.00;100321.59;4293498;33;20030;-73
2022/11/12 06:54:29;;;;;;;39.38;13.30;;;;;;;7.16;100.00;100345.81;4288929;33;20343;-75
2022/11/12 06:57:14;;;;;;;34.88;12.90;;;;;;;7.01;100.00;100342.44;4288148;33;20025;-74
2022/11/12 06:59:59;;;;;;;33.63;13.98;;;;;;;7.07;100.00;100342.47;4302099;33;20044;-73
2022/11/12 07:02:44;;;;;;;29.48;12.70;;;;;;;7.14;100.00;100337.16;4317976;33;20417;-73
2022/11/12 07:05:30;;;;;;;34.58;13.18;;;;;;;7.01;100.00;100300.41;4361252;32;20038;-74
2022/11/12 07:08:14;;;;;;;41.33;15.90;;;;;;;7.26;100.00;100350.88;4393737;32;20048;-73
2022/11/12 07:10:59;;;;;;;42.70;14.20;;;;;;;7.34;100.00;100352.53;4387765;32;20400;-74
2022/11/12 07:13:45;;;;;;;30.45;12.30;;;;;;;7.21;100.00;100313.94;4403233;32;20031;-73
2022/11/12 07:16:30;;;;;;;35.25;12.60;;;;;;;7.48;100.00;100351.59;4405137;32;20041;-73
2022/11/12 07:19:15;;;;;;;42.97;13.45;;;;;;;7.23;100.00;100344.03;4414941;32;20054;-73
2022/11/12 07:22:00;;;;;;;35.05;13.45;;;;;;;7.26;100.00;100338.28;4408372;32;20383;-75
2022/11/12 07:24:45;;;;;;;33.38;12.52;;;;;;;7.11;100.00;100288.53;4407848;32;20059;-75
2022/11/12 07:27:30;;;;;;;31.60;12.15;;;;;;;7.14;100.00;100315.72;4412438;32;20058;-74
2022/11/12 07:30:16;;;;;;;22.40;11.25;;;;;;;7.34;100.00;100348.03;4413787;32;20076;-75
2022/11/12 07:33:01;;;;;;;31.98;11.63;;;;;;;7.48;100.00;100342.75;4415733;32;20046;-74
2022/11/12 07:35:45;;;;;;;28.75;11.80;;;;;;;7.40;100.00;100362.47;4407735;32;20434;-75
2022/11/12 07:38:33;;;;;;;31.20;11.25;;;;;;;7.42;100.00;100361.28;4416184;32;20083;-74
2022/11/12 07:41:23;;;;;;;31.92;12.07;;;;;;;7.41;100.00;100358.78;4415522;32;20031;-74
2022/11/12 07:44:08;;;;;;;34.95;12.02;;;;;;;7.36;100.00;100355.87;4409766;32;20478;-74
2022/11/12 07:46:53;;;;;;;26.58;11.07;;;;;;;6.93;100.00;100318.47;4413656;32;20078;-74
2022/11/12 07:49:39;;;;;;;25.12;11.20;;;;;;;7.08;100.00;100359.37;4415582;32;20095;-74
2022/11/12 07:52:23;;;;;;;20.65;8.55;;;;;;;7.14;100.00;100353.22;4411977;32;20084;-74
2022/11/12 07:55:08;;;;;;;27.25;11.27;;;;;;;7.14;100.00;100360.44;4415725;32;20115;-75
2022/11/12 07:57:58;;;;;;;30.55;12.63;;;;;;;7.25;100.00;100366.09;4415584;32;20445;-74
2022/11/12 08:00:43;;;;;;;28.52;10.38;;;;;;;7.41;100.00;100359.59;4414864;32;20084;-74
2022/11/12 08:03:27;;;;;;;30.37;13.65;;;;;;;7.16;100.00;100371.78;4414425;32;20050;-74
2022/11/12 08:06:12;;;;;;;27.65;13.07;;;;;;;7.11;100.00;100331.38;4412722;32;20059;-74
2022/11/12 08:08:59;;;;;;;30.42;14.73;;;;;;;7.34;100.00;100376.66;4413335;32;20060;-74
2022/11/12 08:11:44;;;;;;;26.50;12.98;;;;;;;7.41;100.00;100364.16;4415732;32;20067;-74
2022/11/12 08:14:29;;;;;;;26.95;13.73;;;;;;;7.11;100.00;100361.66;4414239;32;20039;-74
2022/11/12 08:17:14;;;;;;;33.60;14.75;;;;;;;7.22;100.00;100339.69;4413506;32;20080;-74
2022/11/12 08:19:59;;;;;;;25.88;12.45;;;;;;;7.40;100.00;100357.12;4413853;32;20424;-75
2022/11/12 08:22:44;;;;;;;34.42;14.77;;;;;;;7.41;100.00;100358.78;4413922;32;20104;-74
2022/11/12 08:25:29;;;;;;;28.85;12.95;;;;;;;7.45;100.00;100338.59;4411441;32;20030;-74
2022/11/12 08:28:14;;;;;;;37.03;16.30;;;;;;;7.96;100.00;100335.56;4413532;32;20050;-74
2022/11/12 08:31:04;;;;;;;31.85;13.93;;;;;;;8.70;100.00;100333.91;4414587;32;20045;-74
2022/11/12 08:33:56;;;;;;;28.67;15.15;;;;;;;8.76;100.00;100334.09;4424551;32;20067;-75
2022/11/12 08:36:40;;;;;;;41.33;16.02;;;;;;;8.56;100.00;100361.75;4429953;32;20067;-74
2022/11/12 08:39:25;;;;;;;29.80;14.10;;;;;;;8.81;100.00;100288.69;4426435;32;20072;-73
2022/11/12 08:42:10;;;;;;;29.17;13.88;;;;;;;9.04;100.00;100377.72;4429794;32;20095;-73
2022/11/12 08:44:55;;;;;;;32.85;13.30;;;;;;;8.30;100.00;100374.06;4430005;32;20444;-74
2022/11/12 08:47:40;;;;;;;24.45;12.02;;;;;;;8.09;100.00;100383.06;4430751;32;20039;-73
2022/11/12 08:50:26;;;;;;;24.77;14.05;;;;;;;7.60;100.00;100325.91;4427909;32;20068;-75
2022/11/12 08:53:12;;;;;;;35.72;16.40;;;;;;;8.55;100.00;100338.63;4429260;32;20030;-73
2022/11/12 08:55:58;;;;;;;31.85;16.05;;;;;;;9.30;100.00;100386.78;4429180;32;20097;-74
2022/11/12 08:58:42;;;;;;;27.27;15.38;;;;;;;9.01;100.00;100385.38;4430072;32;20046;-74
2022/11/12 09:01:27;;;;;;;27.98;13.48;;;;;;;9.32;100.00;100357.88;4425726;32;20058;-75
2022/11/12 09:04:12;;;;;;;31.98;13.32;;;;;;;8.71;100.00;100367.78;4427237;32;20030;-74
2022/11/12 09:06:57;;;;;;;34.08;14.87;;;;;;;8.26;100.00;100398.81;4428273;32;20079;-73
2022/11/12 09:09:42;;;;;;;35.95;16.33;;;;;;;8.83;100.00;100399.41;4426171;32;20033;-74
2022/11/12 09:12:27;;;;;;;28.90;13.15;;;;;;;9.33;100.00;100389.06;4379373;32;20115;-74
2022/11/12 09:15:12;;;;;;;28.45;15.35;;;;;;;8.69;100.00;100388.63;4380606;32;20109;-74
2022/11/12 09:17:59;;;;;;;31.08;14.55;;;;;;;8.64;100.00;100396.47;4378749;32;20111;-75
2022/11/12 09:20:44;;;;;;;26.80;14.15;;;;;;;9.24;100.00;100401.91;4378968;32;20071;-75
2022/11/12 09:23:29;;;;;;;25.92;12.43;;;;;;;8.36;100.00;100375.94;4379587;32;20063;-75
2022/11/12 09:26:14;;;;;;;22.98;12.75;;;;;;;8.13;100.00;100378.12;4379013;32;20069;-74
2022/11/12 09:28:59;;;;;;;21.23;11.00;;;;;;;8.58;100.00;100417.94;4380521;32;20112;-74
2022/11/12 09:31:44;;;;;;;32.75;16.27;;;;;;;8.24;100.00;100401.69;4349780;32;20052;-73
2022/11/12 09:34:29;;;;;;;25.08;14.32;;;;;;;8.99;100.00;100400.88;4334951;33;20074;-73
2022/11/12 09:37:14;;;;;;;28.33;14.50;;;;;;;8.41;100.00;100369.13;4329169;33;20033;-74
2022/11/12 09:39:59;;;;;;;24.98;12.30;;;;;;;8.26;100.00;100372.78;4332202;33;20829;-74
2022/11/12 09:42:50;;;;;;;29.17;16.77;;;;;;;9.26;100.00;100388.25;4335081;33;20044;-74
2022/11/12 09:45:35;;;;;;;31.10;17.30;;;;;;;9.59;100.00;100371.28;4325278;33;20090;-75
2022/11/12 09:48:25;;;;;;;33.92;17.15;;;;;;;9.72;100.00;100411.56;4316114;33;20029;-74
2022/11/12 09:51:15;;;;;;;32.13;16.20;;;;;;;9.74;100.00;100371.84;4314644;33;20527;-74
2022/11/12 09:54:17;;;;;;;34.08;18.02;;;;;;;9.90;100.00;100416.28;4310848;33;20037;-74
2022/11/12 09:57:02;;;;;;;;;;;;;;;9.88;100.00;100401.41;4317940;33;20086;-75
2022/11/12 09:59:47;;;;;;;37.33;17.40;;;;;;;9.91;100.00;100395.59;4322567;33;19971;-75
2022/11/12 10:02:46;;;;;;;36.25;17.20;;;;;;;9.88;100.00;100393.34;4328907;33;20048;-73
2022/11/12 10:05:46;;;;;;;37.47;19.48;;;;;;;10.07;100.00;100399.66;4346492;32;20024;-74
2022/11/12 10:08:57;;;;;;;36.05;19.00;;;;;;;10.04;100.00;100400.94;4343958;32;20047;-73
2022/11/12 10:12:32;;;;;;;36.35;17.10;;;;;;;10.10;100.00;100401.94;4344761;32;20046;-74
2022/11/12 10:16:55;;;;;;;33.17;18.23;;;;;;;9.77;100.00;100406.37;4340384;32;20146;-74
2022/11/12 10:19:47;;;;;;;45.08;17.80;;;;;;;9.89;100.00;100408.41;4343740;32;20475;-74
2022/11/12 10:22:57;;;;;;;39.42;19.02;;;;;;;10.00;100.00;100407.75;4362141;32;20052;-73
2022/11/12 10:25:49;;;;;;;39.75;16.05;;;;;;;9.94;100.00;100422.06;4363493;32;20024;-73
2022/11/12 10:28:42;;;;;;;33.33;17.52;;;;;;;9.39;100.00;100372.09;4365899;32;20048;-74
2022/11/12 10:31:27;;;;;;;31.02;15.93;;;;;;;9.90;100.00;100412.78;4362453;32;20057;-72
2022/11/12 10:34:12;;;;;;;35.17;17.45;;;;;;;9.56;100.00;100388.63;4363474;32;20086;-73
2022/11/12 10:37:10;;;;;;;30.85;16.62;;;;;;;9.67;100.00;100415.91;4367136;32;20057;-73
2022/11/12 10:39:56;;;;;;;33.90;18.45;;;;;;;9.59;100.00;100372.09;4377881;32;20073;-75
2022/11/12 10:43:00;;;;;;;39.42;19.30;;;;;;;8.77;100.00;100389.47;4381863;32;20376;-74
2022/11/12 10:45:47;;;;;;;41.92;18.37;;;;;;;9.65;100.00;100402.69;4370535;32;20444;-76
2022/11/12 10:48:32;;;;;;;37.25;18.58;;;;;;;9.58;100.00;100401.88;4371918;32;20071;-76
2022/11/12 10:51:29;;;;;;;33.60;16.55;;;;;;;9.78;100.00;100408.03;4369875;32;20048;-76
2022/11/12 10:54:28;;;;;;;31.42;16.37;;;;;;;9.23;100.00;100373.38;4400246;32;20034;-76
2022/11/12 10:57:25;;;;;;;34.92;17.00;;;;;;;9.51;100.00;100384.91;4427010;32;20097;-76
2022/11/12 11:00:12;;;;;;;34.45;16.70;;;;;;;9.60;100.00;100413.25;4428851;32;20147;-76
2022/11/12 11:02:59;;;;;;;29.73;16.27;;;;;;;9.61;100.00;100420.28;4428872;32;20060;-76
2022/11/12 11:05:44;;;;;;;29.12;15.13;;;;;;;9.25;100.00;100432.28;4427887;32;20037;-74
2022/11/12 11:08:39;;;;;;;33.50;19.05;;;;;;;8.72;100.00;100388.22;4431005;32;20432;-75
2022/11/12 11:11:30;;;;;;;36.30;17.42;;;;;;;9.80;100.00;100427.47;4413853;32;20060;-75
2022/11/12 11:14:21;;;;;;;33.92;16.12;;;;;;;10.17;100.00;100422.41;4428017;32;20097;-75
2022/11/12 11:17:16;;;;;;;32.00;17.48;;;;;;;10.14;100.00;100433.59;4427253;32;20441;-76
2022/11/12 11:20:02;;;;;;;36.47;16.35;;;;;;;10.22;100.00;100427.16;4423560;32;20042;-74
2022/11/12 11:22:58;;;;;;;28.45;14.87;;;;;;;10.10;100.00;100421.59;4426651;32;20385;-74
2022/11/12 11:25:49;;;;;;;31.10;17.27;;;;;;;9.81;100.00;100388.78;4429134;32;20391;-74
2022/11/12 11:28:42;;;;;;;28.35;15.48;;;;;;;10.02;100.00;100424.53;4427412;32;20070;-75
2022/11/12 11:31:54;;;;;;;32.28;14.68;;;;;;;10.07;100.00;100427.41;4424745;32;20079;-75
2022/11/12 11:35:18;;;;;;;26.55;14.20;;;;;;;9.47;100.00;100410.59;4396977;32;20086;-74
2022/11/12 11:38:14;;;;;;;28.12;13.73;;;;;;;9.92;100.00;100435.72;4388454;32;20408;-73
2022/11/12 11:41:07;;;;;;;27.42;14.55;;;;;;;9.74;100.00;100428.31;4383265;32;20085;-73
2022/11/12 11:44:16;;;;;;;25.12;14.27;;;;;;;9.77;100.00;100435.97;4384905;32;20445;-75
2022/11/12 11:47:25;;;;;;;32.50;15.45;;;;;;;9.73;100.00;100426.69;4385797;32;20398;-74
2022/11/12 11:50:24;;;;;;;28.20;14.52;;;;;;;9.66;100.00;100393.56;4384724;32;20964;-74
2022/11/12 11:53:36;;;;;;;33.53;15.68;;;;;;;10.14;100.00;100422.00;4382533;32;20035;-74
2022/11/12 11:56:30;;;;;;;;;;;;;;;9.81;100.00;100379.87;4389118;32;20035;-74
2022/11/12 11:59:39;;;;;;;23.73;13.73;;;;;;;10.25;100.00;100424.03;4393614;32;20035;-74
2022/11/12 12:02:35;;;;;;;25.10;13.18;;;;;;;10.17;100.00;100422.41;4395609;32;20050;-73
2022/11/12 12:05:32;;;;;;;27.60;14.70;;;;;;;9.86;100.00;100419.59;4382250;32;20054;-75
2022/11/12 12:08:29;;;;;;;26.33;13.10;;;;;;;9.80;100.00;100376.37;4395990;32;20487;-73
2022/11/12 12:11:29;;;;;;;26.50;12.95;;;;;;;9.99;100.00;100406.13;4394108;32;20072;-73
2022/11/12 12:14:27;;;;;;;26.12;13.77;;;;;;;9.90;100.00;100388.56;4360980;32;20058;-73
2022/11/12 12:17:30;;;;;;;32.78;16.05;;;;;;;10.23;100.00;100414.50;4363921;32;20091;-73
2022/11/12 12:20:20;;;;;;;30.70;15.25;;;;;;;10.04;100.00;100384.78;4363419;32;20039;-74
2022/11/12 12:23:14;;;;;;;34.20;15.90;;;;;;;10.30;100.00;100415.31;4362356;32;20112;-75
2022/11/12 12:26:02;;;;;;;34.85;17.00;;;;;;;10.21;100.00;100405.81;4362227;32;20595;-74
2022/11/12 12:29:00;;;;;;;42.22;19.27;;;;;;;10.06;100.00;100409.59;4364465;32;20795;-76
2022/11/12 12:32:11;;;;;;;27.00;14.68;;;;;;;10.02;100.00;100388.72;4359419;32;20055;-74
2022/11/12 12:35:27;;;;;;;26.65;13.45;;;;;;;10.10;100.00;100413.53;4363971;32;20061;-75
2022/11/12 12:38:24;;;;;;;29.30;16.65;;;;;;;10.10;100.00;100410.84;4355896;32;20065;-73
2022/11/12 12:42:05;;;;;;;25.15;14.02;;;;;;;10.07;100.00;100416.66;4361978;32;20063;-74
2022/11/12 12:45:00;;;;;;;28.83;14.48;;;;;;;10.12;100.00;100422.22;4374569;32;20047;-74
2022/11/12 12:47:47;;;;;;;27.27;14.07;;;;;;;9.70;100.00;100373.31;4426661;32;20361;-73
2022/11/12 12:50:37;;;;;;;30.02;16.15;;;;;;;9.81;100.00;100361.91;4410522;32;20060;-74
2022/11/12 12:53:33;;;;;;;30.08;15.73;;;;;;;9.98;100.00;100380.25;4409205;32;20413;-73
2022/11/12 12:56:21;;;;;;;34.20;15.93;;;;;;;10.16;100.00;100382.22;4408847;32;20060;-74
2022/11/12 12:59:18;;;;;;;33.95;18.05;;;;;;;10.29;100.00;100424.41;4411655;32;20078;-74
2022/11/12 13:02:19;;;;;;;23.87;12.82;;;;;;;10.01;100.00;100366.37;4412048;32;20481;-74
2022/11/12 13:05:05;;;;;;;23.70;13.23;;;;;;;9.86;100.00;100333.50;4409333;32;20030;-74
2022/11/12 13:07:51;;;;;;;28.08;13.55;;;;;;;10.29;100.00;100408.25;4382251;32;20068;-74
2022/11/12 13:10:38;;;;;;;28.75;13.07;;;;;;;10.18;100.00;100386.37;4384751;32;20034;-72
2022/11/12 13:13:29;;;;;;;24.10;12.63;;;;;;;10.41;100.00;100420.06;4382283;32;20162;-73